Time;durP1;ratioP1;P1;durP2;ratioP2;P2;SDS_P1;SDS_P2;PMS_P1;PMS_P2;Temp;Humidity;BMP_temperature;BMP_pressure;BME280_temperature;BME280_humidity;BME280_pressure;Samples;Min_cycle;Max_cycle;Signal;HPM_P1;HPM_P2
2022/12/14 00:00:41;;;;;;;;;48.25;39.25;;;;;3.27;52.37;99624.72;5016748;28;46651;-70
2022/12/14 00:03:07;;;;;;;;;37.25;33.25;;;;;3.49;52.21;99661.41;5016626;28;45424;-69
2022/12/14 00:05:33;;;;;;;;;45.25;38.00;;;;;3.47;52.22;99659.88;5019783;28;45507;-70
2022/12/14 00:07:58;;;;;;;;;48.75;37.75;;;;;2.21;52.61;99459.22;5021404;28;45455;-70
2022/12/14 00:10:24;;;;;;;;;44.75;38.00;;;;;3.40;52.50;99653.44;5018811;28;47666;-70
2022/12/14 00:12:49;;;;;;;;;35.25;34.50;;;;;3.17;52.98;99619.34;5020342;28;45373;-69
2022/12/14 00:15:14;;;;;;;;;46.00;38.67;;;;;3.58;52.29;99657.19;5001732;28;45646;-71
2022/12/14 00:17:40;;;;;;;;;32.00;32.00;;;;;3.33;52.32;99627.66;5020278;28;45457;-68
2022/12/14 00:20:06;;;;;;;;;46.00;36.50;;;;;3.58;52.12;99688.72;5018982;28;47546;-71
2022/12/14 00:22:31;;;;;;;;;42.75;36.50;;;;;2.82;52.33;99532.97;5019892;28;45413;-68
2022/12/14 00:24:56;;;;;;;;;43.33;38.33;;;;;3.26;52.53;99605.50;5019753;28;45318;-70
2022/12/14 00:27:22;;;;;;;;;50.25;37.50;;;;;3.22;52.40;99598.00;5019802;28;45637;-68
2022/12/14 00:29:47;;;;;;;;;40.00;34.00;;;;;3.10;52.10;99578.81;5018828;28;47366;-69
2022/12/14 00:32:12;;;;;;;;;51.00;39.25;;;;;3.30;52.92;99609.53;5020559;28;45312;-68
2022/12/14 00:34:37;;;;;;;;;42.00;37.75;;;;;3.13;52.56;99589.06;5001747;28;45464;-70
2022/12/14 00:37:03;;;;;;;;;50.25;38.00;;;;;3.40;52.56;99622.72;5019799;28;45332;-69
2022/12/14 00:39:29;;;;;;;;;25.00;24.00;;;;;2.99;52.54;99539.44;5019403;28;45582;-68
2022/12/14 00:41:54;;;;;;;;;38.75;31.75;;;;;3.16;52.35;99586.19;5019377;28;45330;-71
2022/12/14 00:44:20;;;;;;;;;45.50;38.75;;;;;3.27;52.21;99580.91;5019501;28;45306;-70
2022/12/14 00:46:45;;;;;;;;;46.75;37.75;;;;;3.64;52.86;99620.75;5019632;28;45459;-70
2022/12/14 00:49:11;;;;;;;;;46.50;39.50;;;;;2.47;52.50;99432.66;5017794;28;50511;-69
2022/12/14 00:51:36;;;;;;;;;41.00;36.75;;;;;3.05;52.30;99559.97;5017923;28;46494;-68
2022/12/14 00:54:01;;;;;;;;;35.50;32.25;;;;;2.50;52.64;99490.94;5001437;28;45872;-68
2022/12/14 00:56:26;;;;;;;;;39.75;32.75;;;;;3.23;52.96;99592.63;5001541;28;45542;-69
2022/12/14 00:58:53;;;;;;;;;44.25;37.25;;;;;2.97;53.30;99562.38;5019261;28;46838;-69
2022/12/14 01:01:20;;;;;;;;;51.00;39.00;;;;;3.30;53.14;99630.53;5001234;28;46103;-70
2022/12/14 01:03:45;;;;;;;;;40.50;37.50;;;;;3.10;52.93;99597.19;5019045;28;45224;-69
2022/12/14 01:06:21;;;;;;;;;35.00;29.33;;;;;3.23;53.29;99621.50;5019071;28;45232;-69
2022/12/14 01:08:48;;;;;;;;;50.75;42.25;;;;;3.22;53.46;99634.78;5000806;28;47117;-68
2022/12/14 01:11:14;;;;;;;;;34.50;30.75;;;;;2.39;54.29;99493.59;5018694;28;45454;-69
2022/12/14 01:13:40;;;;;;;;;42.75;36.25;;;;;3.21;53.55;99626.06;5001010;28;45428;-68
2022/12/14 01:16:09;;;;;;;;;39.75;34.75;;;;;3.41;53.28;99634.09;5000827;28;45550;-67
2022/12/14 01:18:36;;;;;;;;;41.50;36.75;;;;;3.46;53.76;99647.69;5018548;28;46781;-69
2022/12/14 01:21:08;;;;;;;;;36.25;30.00;;;;;3.55;52.73;99653.00;5017805;28;45791;-68
2022/12/14 01:23:33;;;;;;;;;36.00;35.50;;;;;3.71;52.68;99668.38;5018844;28;45285;-69
2022/12/14 01:25:58;;;;;;;;;42.67;34.00;;;;;3.78;51.94;99664.25;5018634;28;45203;-69
2022/12/14 01:28:24;;;;;;;;;39.67;33.33;;;;;3.79;52.77;99663.28;5018555;28;45582;-68
2022/12/14 01:30:49;;;;;;;;;34.67;33.67;;;;;3.79;52.33;99663.28;5018833;28;45278;-68
2022/12/14 01:33:14;;;;;;;;;38.75;35.50;;;;;3.66;52.32;99654.78;5018717;28;45515;-69
2022/12/14 01:35:39;;;;;;;;;50.00;37.50;;;;;3.64;52.93;99636.50;5018540;28;45550;-69
2022/12/14 01:38:05;;;;;;;;;43.00;35.33;;;;;3.82;52.48;99649.09;5018687;28;54353;-67
2022/12/14 01:40:30;;;;;;;;;44.00;38.25;;;;;3.77;52.96;99646.81;5018268;28;52982;-72
2022/12/14 01:42:55;;;;;;;;;43.00;38.75;;;;;3.73;52.11;99637.53;5018829;28;45246;-68
2022/12/14 01:45:21;;;;;;;;;38.50;36.25;;;;;3.83;52.37;99656.84;5017400;28;45457;-69
2022/12/14 01:47:53;;;;;;;;;44.75;39.50;;;;;3.70;53.46;99671.13;5019179;28;45394;-68
2022/12/14 01:50:25;;;;;;;;;46.25;39.00;;;;;3.58;53.21;99655.38;5018486;28;45325;-70
2022/12/14 01:52:54;;;;;;;;;43.50;38.50;;;;;3.23;53.53;99647.78;5018475;28;45312;-68
2022/12/14 01:55:34;;;;;;;;;44.00;36.75;;;;;3.21;54.36;99680.38;5019124;28;45365;-70
2022/12/14 01:58:08;;;;;;;;;52.25;42.25;;;;;3.12;55.75;99644.34;5000307;28;49030;-69
2022/12/14 02:00:34;;;;;;;;;50.75;38.75;;;;;3.12;56.15;99632.03;5018146;28;45328;-68
2022/12/14 02:03:05;;;;;;;;;53.00;41.75;;;;;1.99;57.18;99456.59;5018949;28;45301;-67
2022/12/14 02:05:35;;;;;;;;;52.25;42.50;;;;;2.26;59.78;99559.31;5018342;28;45337;-68
2022/12/14 02:08:02;;;;;;;;;57.00;40.00;;;;;2.45;60.46;99611.16;5017996;28;46859;-70
2022/12/14 02:10:30;;;;;;;;;49.25;41.50;;;;;2.55;60.86;99654.06;5017751;28;45347;-68
2022/12/14 02:13:07;;;;;;;;;51.50;41.00;;;;;2.39;61.30;99616.88;5017925;28;45234;-68
2022/12/14 02:15:33;;;;;;;;;56.50;43.00;;;;;2.62;62.75;99657.91;5017942;28;45489;-68
2022/12/14 02:18:02;;;;;;;;;48.00;39.25;;;;;2.78;61.84;99662.75;5017720;28;46805;-69
2022/12/14 02:20:38;;;;;;;;;48.25;39.50;;;;;2.95;61.04;99640.44;5016509;28;45487;-69
2022/12/14 02:23:19;;;;;;;;;46.50;37.00;;;;;3.01;60.69;99647.84;5017982;28;45575;-67
2022/12/14 02:26:24;;;;;;;;;53.00;43.00;;;;;2.79;60.58;99574.34;5018028;28;45318;-70
2022/12/14 02:29:31;;;;;;;;;48.25;39.50;;;;;3.13;60.48;99630.25;5016681;28;46529;-68
2022/12/14 02:32:09;;;;;;;;;53.00;40.25;;;;;2.07;60.83;99459.47;5017585;28;45440;-68
2022/12/14 02:34:54;;;;;;;;;51.50;40.75;;;;;3.18;61.00;99625.44;5017795;28;45442;-70
2022/12/14 02:37:42;;;;;;;;;59.00;46.25;;;;;3.10;62.72;99605.06;5017933;28;45353;-68
2022/12/14 02:40:18;;;;;;;;;50.25;40.50;;;;;2.78;62.58;99559.56;5017458;28;46561;-70
2022/12/14 02:42:57;;;;;;;;;44.25;35.00;;;;;2.69;63.52;99537.53;5017404;28;45397;-68
2022/12/14 02:45:29;;;;;;;;;35.50;33.00;;;;;2.49;63.42;99486.66;5017473;28;45642;-68
2022/12/14 02:48:05;;;;;;;;;53.00;39.00;;;;;2.88;64.30;99573.63;5016940;28;45522;-68
2022/12/14 02:50:36;;;;;;;;;40.75;37.50;;;;;2.97;65.04;99593.88;5017618;28;46734;-70
2022/12/14 02:53:08;;;;;;;;;48.00;41.25;;;;;2.92;64.82;99580.31;5015861;28;45350;-67
2022/12/14 02:55:38;;;;;;;;;42.50;35.25;;;;;2.82;65.28;99569.72;5017422;28;45270;-68
2022/12/14 02:58:16;;;;;;;;;47.75;40.00;;;;;2.92;64.72;99565.38;4999792;28;45546;-69
2022/12/14 03:00:42;;;;;;;;;46.00;37.75;;;;;2.71;64.78;99531.22;5017152;28;46802;-70
2022/12/14 03:03:07;;;;;;;;;49.50;39.75;;;;;2.95;64.94;99556.41;5017215;28;45771;-69
2022/12/14 03:05:33;;;;;;;;;50.75;38.50;;;;;2.92;64.43;99560.13;5017355;28;45555;-68
2022/12/14 03:08:05;;;;;;;;;41.75;35.75;;;;;2.56;64.60;99528.97;5017326;28;45462;-68
2022/12/14 03:11:01;;;;;;;;;53.00;41.50;;;;;2.78;63.98;99572.69;5017064;28;46037;-69
2022/12/14 03:13:33;;;;;;;;;47.75;38.50;;;;;2.81;63.97;99561.97;5015986;28;45257;-70
2022/12/14 03:16:06;;;;;;;;;44.75;39.50;;;;;2.79;64.97;99553.38;5016934;28;45498;-70
2022/12/14 03:18:37;;;;;;;;;48.00;40.00;;;;;2.49;64.52;99514.69;5017137;28;45490;-68
2022/12/14 03:21:08;;;;;;;;;44.75;37.75;;;;;2.24;64.56;99493.03;4999070;28;48514;-66
2022/12/14 03:23:38;;;;;;;;;48.25;40.25;;;;;2.77;64.46;99571.03;5016948;28;45480;-69
2022/12/14 03:26:14;;;;;;;;;42.75;36.25;;;;;2.90;64.47;99574.34;5017021;28;45503;-69
2022/12/14 03:28:52;;;;;;;;;45.00;39.75;;;;;2.91;64.23;99561.09;5017108;28;45417;-68
2022/12/14 03:31:30;;;;;;;;;41.75;38.25;;;;;3.01;63.14;99555.94;5016695;28;46136;-67
2022/12/14 03:34:00;;;;;;;;;46.00;38.75;;;;;1.94;63.92;99378.34;5016820;28;45328;-70
2022/12/14 03:36:42;;;;;;;;;40.25;35.25;;;;;2.91;63.02;99523.50;5016981;28;45257;-68
2022/12/14 03:39:13;;;;;;;;;52.00;40.75;;;;;2.17;63.13;99402.69;5017373;28;45270;-70
2022/12/14 03:42:04;;;;;;;;;52.25;42.50;;;;;2.83;62.83;99528.56;5020356;28;45690;-67
2022/12/14 03:44:56;;;;;;;;;42.00;36.75;;;;;2.97;63.17;99551.88;5020960;28;45205;-70
2022/12/14 03:47:46;;;;;;;;;47.00;38.25;;;;;2.90;63.56;99550.72;5020387;28;45375;-69
2022/12/14 03:50:18;;;;;;;;;44.75;37.75;;;;;2.96;63.35;99539.72;5020330;28;45320;-69
2022/12/14 03:52:52;;;;;;;;;31.75;29.50;;;;;2.97;63.93;99530.88;5020072;28;46700;-69
2022/12/14 03:55:45;;;;;;;;;38.00;34.50;;;;;3.01;63.43;99524.44;5020363;28;45469;-67
2022/12/14 03:58:32;;;;;;;;;43.50;36.75;;;;;3.05;63.42;99513.56;5020196;28;45470;-70
2022/12/14 04:01:10;;;;;;;;;34.00;32.67;;;;;3.02;62.82;99513.81;5019992;28;45602;-69
2022/12/14 04:03:49;;;;;;;;;39.75;38.25;;;;;3.04;63.44;99525.00;5019904;28;45701;-69
2022/12/14 04:06:30;;;;;;;;;43.00;36.75;;;;;2.66;62.87;99465.16;5018613;28;45368;-71
2022/12/14 04:09:16;;;;;;;;;40.50;35.50;;;;;3.11;62.88;99532.38;5020066;28;45236;-70
2022/12/14 04:20:35;;;;;;;;;47.25;37.75;;;;;1.39;65.19;99346.00;5019791;28;45226;-68
2022/12/14 04:23:14;;;;;;;;;25.75;21.00;;;;;2.56;65.04;99500.94;5019820;28;45313;-70
2022/12/14 04:26:05;;;;;;;;;42.25;38.75;;;;;2.13;65.28;99422.25;5019399;28;46697;-68
2022/12/14 04:31:29;;;;;;;;;55.50;40.00;;;;;2.68;64.32;99507.00;5019495;28;45258;-69
2022/12/14 04:34:01;;;;;;;;;43.75;34.00;;;;;2.41;64.21;99449.75;5019809;28;45473;-69
2022/12/14 04:36:55;;;;;;;;;43.25;36.50;;;;;2.81;64.12;99505.06;5017960;28;46590;-68
2022/12/14 04:39:34;;;;;;;;;36.50;32.50;;;;;2.71;63.76;99491.84;5019599;28;45313;-70
2022/12/14 04:42:02;;;;;;;;;40.50;33.00;;;;;2.83;64.05;99503.16;5019448;28;45561;-68
2022/12/14 04:44:35;;;;;;;;;41.75;37.50;;;;;2.41;63.96;99421.72;5018203;28;45330;-70
2022/12/14 04:47:06;;;;;;;;;45.25;33.75;;;;;2.82;63.93;99501.47;5019183;28;45884;-67
2022/12/14 04:49:40;;;;;;;;;40.00;35.50;;;;;2.82;63.82;99521.66;5019165;28;45275;-69
2022/12/14 04:52:14;;;;;;;;;47.50;39.50;;;;;2.65;64.94;99542.19;5017347;28;45443;-69
2022/12/14 04:54:49;;;;;;;;;37.75;31.50;;;;;2.42;65.03;99496.00;5019496;28;45171;-70
2022/12/14 04:57:26;;;;;;;;;42.50;38.25;;;;;2.63;64.79;99524.91;5000879;28;48658;-68
2022/12/14 04:59:53;;;;;;;;;38.25;34.75;;;;;2.71;65.29;99538.25;5017617;28;45412;-71
2022/12/14 05:02:36;;;;;;;;;48.00;41.00;;;;;2.67;64.76;99521.91;5019949;28;45336;-68
2022/12/14 05:05:15;;;;;;;;;45.00;38.00;;;;;2.45;64.29;99490.50;5018223;28;45562;-69
2022/12/14 05:07:55;;;;;;;;;52.00;42.50;;;;;2.59;64.70;99494.63;5019570;28;45692;-69
2022/12/14 05:10:45;;;;;;;;;49.00;38.00;;;;;2.71;65.00;99530.38;5017798;28;45475;-70
2022/12/14 05:13:43;;;;;;;;;37.50;32.50;;;;;2.50;65.11;99527.69;5017544;28;45468;-69
2022/12/14 05:16:11;;;;;;;;;46.75;38.75;;;;;2.42;65.14;99530.94;5018571;28;45551;-68
2022/12/14 05:18:37;;;;;;;;;35.25;35.25;;;;;2.34;65.97;99511.50;5000831;28;46998;-70
2022/12/14 05:21:02;;;;;;;;;45.00;40.00;;;;;1.88;66.27;99461.88;5018735;28;45280;-69
2022/12/14 05:23:27;;;;;;;;;40.00;38.00;;;;;2.28;66.19;99519.84;5018723;28;45658;-71
2022/12/14 05:25:53;;;;;;;;;48.25;40.00;;;;;2.19;65.63;99496.97;5018870;28;45504;-69
2022/12/14 05:28:18;;;;;;;;;43.25;38.25;;;;;2.20;65.66;99509.13;5018665;28;46047;-70
2022/12/14 05:30:43;;;;;;;;;49.00;41.00;;;;;2.45;65.66;99529.84;5016511;28;62105;-69
2022/12/14 05:33:19;;;;;;;;;46.00;35.75;;;;;2.12;64.72;99434.53;5018565;28;45340;-69
2022/12/14 05:35:44;;;;;;;;;49.50;41.00;;;;;2.63;64.21;99493.44;5000776;28;45288;-70
2022/12/14 05:38:09;;;;;;;;;54.50;41.50;;;;;2.75;64.26;99506.38;5019044;28;46660;-69
2022/12/14 05:40:35;;;;;;;;;42.50;36.75;;;;;2.80;64.51;99505.16;5019320;28;45460;-67
2022/12/14 05:43:12;;;;;;;;;40.00;37.75;;;;;2.51;64.12;99471.63;5018691;28;45886;-68
2022/12/14 05:45:37;;;;;;;;;47.75;40.00;;;;;2.64;63.90;99522.16;5017412;28;45374;-70
2022/12/14 05:48:02;;;;;;;;;43.50;37.00;;;;;2.50;64.72;99522.44;5018136;28;45609;-68
2022/12/14 05:50:28;;;;;;;;;50.25;39.25;;;;;1.75;65.41;99409.56;5018310;28;45391;-68
2022/12/14 05:52:54;;;;;;;;;42.25;38.00;;;;;2.55;65.81;99538.63;5018262;28;45977;-70
2022/12/14 05:55:20;;;;;;;;;41.75;37.00;;;;;2.24;66.08;99492.22;5018495;28;45485;-70
2022/12/14 05:57:45;;;;;;;;;52.75;40.00;;;;;1.95;66.27;99450.75;5017557;28;46307;-68
2022/12/14 06:00:11;;;;;;;;;35.75;30.50;;;;;2.47;66.54;99541.03;5018197;28;45227;-69
2022/12/14 06:02:36;;;;;;;;;45.75;37.50;;;;;0.79;66.33;99260.84;5017311;28;45309;-68
2022/12/14 06:05:02;;;;;;;;;45.25;40.25;;;;;2.44;66.16;99549.16;5018145;28;45346;-69
2022/12/14 06:07:27;;;;;;;;;38.75;35.75;;;;;2.43;65.93;99558.81;5018003;28;45684;-70
2022/12/14 06:09:53;;;;;;;;;54.75;40.75;;;;;0.05;66.18;99149.81;5016471;28;46597;-68
2022/12/14 06:12:18;;;;;;;;;37.50;33.25;;;;;2.23;66.29;99493.16;5017051;28;45422;-68
2022/12/14 06:14:44;;;;;;;;;54.25;41.25;;;;;2.38;66.22;99524.22;4997999;28;45605;-68
2022/12/14 06:17:10;;;;;;;;;47.25;39.25;;;;;2.59;65.51;99561.03;5012685;28;46577;-68
2022/12/14 06:19:36;;;;;;;;;44.25;39.00;;;;;1.53;65.54;99387.69;5017744;28;45306;-68
2022/12/14 06:22:01;;;;;;;;;60.25;47.75;;;;;-0.58;66.44;99083.19;5012303;28;45559;-69
2022/12/14 06:24:26;;;;;;;;;44.00;36.00;;;;;2.30;67.89;99563.34;4997809;28;45315;-70
2022/12/14 06:26:52;;;;;;;;;54.25;39.75;;;;;2.39;67.27;99554.75;4979546;28;48315;-69
2022/12/14 06:29:18;;;;;;;;;51.25;40.50;;;;;1.86;67.20;99467.22;4997653;28;45491;-69
2022/12/14 06:31:44;;;;;;;;;43.75;36.00;;;;;2.54;67.32;99557.97;5003781;28;45470;-69
2022/12/14 06:34:10;;;;;;;;;45.75;39.00;;;;;2.37;67.36;99537.47;4999955;28;45195;-68
2022/12/14 06:36:38;;;;;;;;;51.25;40.75;;;;;2.43;67.56;99539.63;5017249;28;46255;-71
2022/12/14 06:39:07;;;;;;;;;45.50;38.00;;;;;2.53;67.17;99566.78;5016525;28;45485;-71
2022/12/14 06:41:32;;;;;;;;;54.50;43.50;;;;;2.33;67.12;99515.06;5003932;28;45547;-70
2022/12/14 06:44:04;;;;;;;;;45.75;39.00;;;;;2.72;66.51;99551.25;4997653;28;45460;-69
2022/12/14 06:46:30;;;;;;;;;46.75;38.00;;;;;2.00;66.49;99422.44;4997123;28;46205;-70
2022/12/14 06:48:55;;;;;;;;;55.75;41.25;;;;;2.74;67.04;99557.19;4996995;28;45519;-70
2022/12/14 06:51:23;;;;;;;;;45.25;39.75;;;;;2.41;66.13;99489.09;5001634;28;45483;-69
2022/12/14 06:53:53;;;;;;;;;52.00;39.25;;;;;2.45;65.46;99498.38;4997679;28;45284;-69
2022/12/14 06:56:20;;;;;;;;;44.25;37.75;;;;;2.45;66.14;99493.13;4980858;28;48493;-69
2022/12/14 06:58:45;;;;;;;;;49.75;39.75;;;;;2.97;65.73;99551.88;4997640;28;45495;-69
2022/12/14 07:01:14;;;;;;;;;53.50;37.00;;;;;2.92;65.86;99548.81;4980308;28;45476;-69
2022/12/14 07:03:40;;;;;;;;;54.00;42.50;;;;;2.77;65.64;99552.66;4997661;28;45267;-71
2022/12/14 07:06:06;;;;;;;;;53.00;43.75;;;;;2.53;66.40;99522.19;5002998;28;48317;-69
2022/12/14 07:08:33;;;;;;;;;47.00;40.25;;;;;2.48;66.79;99534.84;5017030;28;45249;-69
2022/12/14 07:11:04;;;;;;;;;56.25;43.25;;;;;2.58;67.76;99575.13;5017084;28;45411;-69
2022/12/14 07:13:30;;;;;;;;;51.75;42.75;;;;;2.48;68.10;99583.84;5016728;28;45359;-68
2022/12/14 07:15:57;;;;;;;;;41.50;37.50;;;;;2.52;68.01;99596.59;5012101;28;46630;-71
2022/12/14 07:18:23;;;;;;;;;53.00;42.00;;;;;2.60;68.54;99591.59;5001494;28;45262;-68
2022/12/14 07:20:55;;;;;;;;;47.25;39.00;;;;;2.66;68.35;99598.97;4998117;28;45602;-71
2022/12/14 07:23:21;;;;;;;;;57.75;44.75;;;;;2.62;69.02;99594.09;4997467;28;45215;-68
2022/12/14 07:25:46;;;;;;;;;48.00;40.50;;;;;2.63;68.92;99622.00;4997231;28;46566;-70
2022/12/14 07:28:11;;;;;;;;;49.25;40.00;;;;;1.25;69.08;99379.47;4996693;28;50239;-68
2022/12/14 07:30:37;;;;;;;;;50.25;40.75;;;;;2.54;69.39;99596.47;4995979;28;45341;-70
2022/12/14 07:33:02;;;;;;;;;50.75;39.75;;;;;2.65;69.05;99625.34;4996758;28;54473;-69
2022/12/14 07:35:27;;;;;;;;;56.25;44.25;;;;;2.57;68.78;99623.28;4998415;28;45916;-73
2022/12/14 07:37:53;;;;;;;;;31.50;29.50;;;;;2.65;68.28;99620.09;4996344;28;45339;-70
2022/12/14 07:40:18;;;;;;;;;46.75;38.75;;;;;1.32;68.30;99419.94;4979411;28;45448;-70
2022/12/14 07:42:48;;;;;;;;;49.75;41.25;;;;;2.47;68.49;99609.25;5000777;28;45364;-70
2022/12/14 07:45:13;;;;;;;;;41.75;36.00;;;;;2.19;68.55;99591.34;4999071;28;46498;-71
2022/12/14 07:47:38;;;;;;;;;55.75;40.25;;;;;2.13;68.61;99569.91;5000547;28;45345;-67
2022/12/14 07:50:04;;;;;;;;;48.00;39.75;;;;;2.65;67.93;99644.53;5012255;28;45502;-71
2022/12/14 07:52:30;;;;;;;;;54.25;43.75;;;;;2.27;68.25;99584.59;5012331;28;45499;-69
2022/12/14 07:54:55;;;;;;;;;50.25;40.50;;;;;2.54;68.37;99647.16;4996685;28;45551;-71
2022/12/14 07:57:21;;;;;;;;;53.75;43.75;;;;;2.33;68.83;99610.31;4999990;28;45747;-68
2022/12/14 07:59:48;;;;;;;;;39.00;32.25;;;;;2.36;70.11;99623.19;5010692;28;45397;-69
2022/12/14 08:02:13;;;;;;;;;51.00;43.25;;;;;2.32;68.82;99602.56;5000997;28;45493;-69
2022/12/14 08:04:38;;;;;;;;;52.00;40.25;;;;;2.26;68.08;99596.03;4997583;28;45690;-71
2022/12/14 08:07:04;;;;;;;;;54.00;40.00;;;;;2.57;68.50;99648.69;5005651;28;45368;-70
2022/12/14 08:09:29;;;;;;;;;59.00;46.75;;;;;2.65;67.75;99647.16;5002759;28;45310;-70
2022/12/14 08:11:55;;;;;;;;;48.75;41.50;;;;;2.36;68.35;99617.09;5008849;28;45428;-71
2022/12/14 08:14:20;;;;;;;;;53.75;42.75;;;;;2.35;67.95;99618.91;4998745;28;47497;-72
2022/12/14 08:16:47;;;;;;;;;51.50;40.50;;;;;2.22;68.22;99612.97;5016493;28;45399;-71
2022/12/14 08:19:13;;;;;;;;;45.50;35.50;;;;;2.51;68.56;99642.16;5015206;28;45547;-71
2022/12/14 08:21:39;;;;;;;;;41.25;32.00;;;;;2.63;67.16;99649.09;5015451;28;45487;-70
2022/12/14 08:24:05;;;;;;;;;40.50;35.50;;;;;2.62;66.96;99646.56;5004368;28;48022;-69
2022/12/14 08:26:31;;;;;;;;;50.50;40.50;;;;;2.38;67.57;99623.06;4998529;28;45536;-72
2022/12/14 08:28:56;;;;;;;;;53.00;40.75;;;;;2.54;67.57;99631.41;5004581;28;45243;-70
2022/12/14 08:31:24;;;;;;;;;47.25;41.00;;;;;1.79;67.56;99481.75;5007772;28;45586;-70
2022/12/14 08:33:50;;;;;;;;;48.00;41.00;;;;;2.95;66.45;99653.56;4993014;28;48769;-70
2022/12/14 08:36:23;;;;;;;;;58.25;45.75;;;;;2.97;65.83;99643.75;5012749;28;45518;-69
2022/12/14 08:38:53;;;;;;;;;43.50;39.75;;;;;2.91;65.79;99652.97;5000506;28;45253;-68
2022/12/14 08:41:19;;;;;;;;;45.75;39.75;;;;;2.88;65.70;99639.25;5017688;28;45277;-70
2022/12/14 08:43:48;;;;;;;;;51.75;41.00;;;;;3.01;65.66;99653.91;5017955;28;47876;-69
2022/12/14 08:46:13;;;;;;;;;49.75;42.00;;;;;2.99;65.13;99654.97;5013107;28;45462;-71
2022/12/14 08:48:39;;;;;;;;;52.50;41.00;;;;;3.21;64.45;99665.47;4999648;28;45715;-71
2022/12/14 08:51:07;;;;;;;;;54.50;40.25;;;;;3.03;64.29;99615.25;5000381;28;45400;-68
2022/12/14 08:53:33;;;;;;;;;51.75;43.00;;;;;3.23;64.55;99668.78;4999733;28;46688;-67
2022/12/14 08:56:03;;;;;;;;;52.00;42.00;;;;;0.57;64.14;99227.66;4999794;28;45227;-69
2022/12/14 08:58:29;;;;;;;;;53.00;40.50;;;;;2.53;64.37;99519.56;5013270;28;45361;-69
2022/12/14 09:01:06;;;;;;;;;46.25;39.75;;;;;3.58;63.22;99641.41;5019693;28;45464;-69
2022/12/14 09:03:32;;;;;;;;;54.50;42.25;;;;;3.43;63.40;99609.38;5019238;28;45807;-68
2022/12/14 09:06:06;;;;;;;;;58.75;43.00;;;;;3.64;62.63;99646.19;5013157;28;45396;-69
2022/12/14 09:08:32;;;;;;;;;46.25;39.75;;;;;3.68;62.17;99679.13;5006275;28;45433;-69
2022/12/14 09:10:58;;;;;;;;;53.00;43.50;;;;;3.69;62.78;99691.31;5013049;28;45603;-70
2022/12/14 09:13:24;;;;;;;;;47.50;39.75;;;;;3.23;62.05;99594.41;5004873;28;46247;-69
2022/12/14 09:16:06;;;;;;;;;56.25;43.00;;;;;3.67;61.93;99677.47;4981549;28;45555;-69
2022/12/14 09:18:33;;;;;;;;;49.50;39.25;;;;;3.62;62.42;99685.75;4999720;28;45337;-70
2022/12/14 09:20:59;;;;;;;;;49.00;39.50;;;;;3.72;62.42;99704.19;4999702;28;45506;-69
2022/12/14 09:23:26;;;;;;;;;44.25;39.25;;;;;3.71;62.01;99697.28;5014378;28;46073;-69
2022/12/14 09:26:12;;;;;;;;;48.75;39.50;;;;;2.61;62.25;99518.97;4999544;28;45557;-68
2022/12/14 09:28:40;;;;;;;;;49.00;39.25;;;;;3.64;62.61;99682.97;5018602;28;45382;-71
2022/12/14 09:31:09;;;;;;;;;44.25;37.00;;;;;2.91;61.10;99574.22;5013025;28;45452;-70
2022/12/14 09:33:35;;;;;;;;;52.25;42.25;;;;;3.61;61.11;99662.22;5010506;28;45847;-70
2022/12/14 09:36:04;;;;;;;;;56.75;43.00;;;;;3.88;61.30;99715.13;5002185;28;45574;-71
2022/12/14 09:38:31;;;;;;;;;48.00;39.75;;;;;3.71;61.31;99688.56;5003324;28;45483;-68
2022/12/14 09:41:03;;;;;;;;;52.25;42.25;;;;;3.64;61.03;99694.31;5016603;28;45661;-69
2022/12/14 09:43:37;;;;;;;;;50.00;41.67;;;;;3.73;60.63;99719.00;4998607;28;46879;-68
2022/12/14 09:46:21;;;;;;;;;54.25;41.50;;;;;3.85;61.78;99722.44;5013570;28;45365;-70
2022/12/14 09:48:48;;;;;;;;;56.00;43.75;;;;;3.98;61.47;99728.34;4999510;28;45530;-72
2022/12/14 09:51:20;;;;;;;;;49.00;40.00;;;;;4.03;61.37;99731.44;4999553;28;45343;-69
2022/12/14 09:53:49;;;;;;;;;51.50;40.25;;;;;4.10;60.69;99732.59;5014662;28;46557;-69
2022/12/14 09:56:17;;;;;;;;;55.00;41.75;;;;;3.00;59.75;99541.13;4986923;28;45430;-70
2022/12/14 09:58:51;;;;;;;;;58.25;45.25;;;;;3.63;59.54;99655.88;5003789;28;45499;-70
2022/12/14 10:01:22;;;;;;;;;52.00;42.50;;;;;3.86;58.80;99724.13;5018915;28;45484;-69
2022/12/14 10:04:20;;;;;;;;;48.50;38.50;;;;;3.76;59.13;99721.38;5013226;28;45769;-70
2022/12/14 10:07:15;;;;;;;;;53.50;43.75;;;;;3.81;60.10;99721.88;5003746;28;45400;-70
2022/12/14 10:10:23;;;;;;;;;51.75;44.25;;;;;3.45;59.26;99701.19;5000243;28;45496;-69
2022/12/14 10:13:25;;;;;;;;;55.75;44.75;;;;;3.82;60.01;99728.78;5011065;28;45589;-74
2022/12/14 10:16:22;;;;;;;;;53.50;42.75;;;;;3.85;59.99;99691.72;5010395;28;46614;-71
2022/12/14 10:19:01;;;;;;;;;54.50;43.25;;;;;4.24;58.40;99723.56;5000793;28;45523;-71
2022/12/14 10:21:43;;;;;;;;;59.00;45.25;;;;;4.36;58.42;99725.16;5007315;28;45474;-70
2022/12/14 10:27:32;;;;;;;;;50.33;42.33;;;;;4.53;57.29;99726.34;4999487;28;45416;-70
2022/12/14 10:30:07;;;;;;;;;53.25;44.50;;;;;4.55;57.06;99738.41;4998284;28;45416;-71
2022/12/14 10:32:40;;;;;;;;;55.75;45.50;;;;;4.41;56.60;99720.34;4984174;28;45333;-72
2022/12/14 10:35:12;;;;;;;;;60.50;47.00;;;;;4.50;56.82;99729.25;5015365;28;45849;-70
2022/12/14 10:37:42;;;;;;;;;59.00;44.00;;;;;4.65;57.50;99738.47;5006433;28;46632;-70
2022/12/14 10:40:07;;;;;;;;;56.00;44.50;;;;;4.77;56.16;99720.78;5017440;28;45569;-71
2022/12/14 10:42:38;;;;;;;;;58.25;46.00;;;;;4.81;56.66;99725.69;5017207;28;45597;-71
2022/12/14 10:45:34;;;;;;;;;55.75;46.50;;;;;4.99;55.98;99720.59;5003108;28;45572;-70
2022/12/14 10:48:29;;;;;;;;;57.75;45.50;;;;;4.98;56.48;99724.19;4979233;28;47571;-72
2022/12/14 10:51:03;;;;;;;;;58.50;46.50;;;;;5.00;54.51;99726.69;4996061;28;45493;-72
2022/12/14 10:53:42;;;;;;;;;57.25;45.75;;;;;4.02;54.61;99565.91;4995641;28;45572;-71
2022/12/14 10:56:19;;;;;;;;;55.00;44.00;;;;;4.84;54.54;99721.94;5012519;28;45389;-69
2022/12/14 10:59:13;;;;;;;;;56.00;42.50;;;;;4.66;54.15;99718.25;5001902;28;46372;-72
2022/12/14 11:01:39;;;;;;;;;55.50;42.50;;;;;4.38;53.97;99689.00;4988165;28;45262;-71
2022/12/14 11:04:13;;;;;;;;;52.00;44.25;;;;;4.30;53.91;99693.25;4992845;28;45545;-71
2022/12/14 11:06:38;;;;;;;;;46.75;39.25;;;;;4.45;54.89;99737.53;4996691;28;45621;-72
2022/12/14 11:09:20;;;;;;;;;55.00;47.00;;;;;4.48;55.15;99745.16;4978322;28;48215;-69
2022/12/14 11:11:45;;;;;;;;;54.50;45.50;;;;;4.36;54.71;99732.19;4988598;28;45300;-71
2022/12/14 11:14:16;;;;;;;;;60.75;46.75;;;;;4.29;55.98;99763.47;4998362;28;45326;-70
2022/12/14 11:16:41;;;;;;;;;62.00;48.25;;;;;3.12;56.10;99534.03;4999439;28;45496;-71
2022/12/14 11:19:16;;;;;;;;;59.75;47.00;;;;;4.09;55.64;99672.22;5016263;28;46008;-70
2022/12/14 11:21:43;;;;;;;;;54.75;45.50;;;;;4.40;55.08;99684.44;4997624;28;45410;-73
2022/12/14 11:24:27;;;;;;;;;54.50;44.25;;;;;4.40;55.02;99702.88;5010535;28;45313;-72
2022/12/14 11:27:01;;;;;;;;;51.75;40.25;;;;;4.31;54.04;99679.97;5012768;28;45550;-72
2022/12/14 11:29:36;;;;;;;;;60.00;46.75;;;;;4.09;54.96;99669.59;5006561;28;46383;-71
2022/12/14 11:32:03;;;;;;;;;59.25;47.50;;;;;4.64;54.95;99738.63;5000369;28;45338;-71
2022/12/14 11:34:38;;;;;;;;;59.25;49.00;;;;;3.71;55.51;99605.28;5000211;28;45481;-70
2022/12/14 11:37:30;;;;;;;;;58.25;45.00;;;;;4.64;55.30;99735.97;5019618;28;45225;-70
2022/12/14 11:40:05;;;;;;;;;57.00;46.00;;;;;4.61;54.90;99752.03;5013055;28;46319;-72
2022/12/14 11:42:31;;;;;;;;;58.75;49.50;;;;;4.33;54.33;99724.56;5002826;28;45769;-71
2022/12/14 11:45:23;;;;;;;;;59.50;47.00;;;;;4.61;55.08;99758.13;4998134;28;45235;-72
2022/12/14 11:48:08;;;;;;;;;58.50;45.50;;;;;3.97;55.17;99629.38;5000036;28;45551;-70
2022/12/14 11:50:33;;;;;;;;;57.50;48.25;;;;;4.51;53.80;99710.69;4997310;28;45386;-71
2022/12/14 11:53:10;;;;;;;;;60.25;49.00;;;;;4.72;54.05;99738.78;4979888;28;45346;-75
2022/12/14 11:55:38;;;;;;;;;69.75;50.75;;;;;4.87;53.53;99779.63;4980372;28;45257;-70
2022/12/14 11:58:10;;;;;;;;;66.00;49.00;;;;;3.77;53.91;99612.66;5013008;28;45558;-73